sensor_id;sensor_type;location;lat;lon;timestamp;pressure;altitude;pressure_sealevel;temperature;humidity
39209;BME280;24929;51.982;4.664;2023-04-25T00:00:43;77302.34;;;-143.36;nan
39209;BME280;24929;51.982;4.664;2023-04-25T00:03:08;77304.38;;;-143.36;nan
39209;BME280;24929;51.982;4.664;2023-04-25T00:05:34;77324.44;;;-143.36;nan
39209;BME280;24929;51.982;4.664;2023-04-25T00:08:02;77312.38;;;-143.36;nan
39209;BME280;24929;51.982;4.664;2023-04-25T00:10:28;77316.41;;;-143.36;nan
39209;BME280;24929;51.982;4.664;2023-04-25T00:12:53;77276.25;;;-143.36;nan
39209;BME280;24929;51.982;4.664;2023-04-25T00:15:18;77252.19;;;-143.36;nan
39209;BME280;24929;51.982;4.664;2023-04-25T00:17:44;77274.25;;;-143.36;nan
39209;BME280;24929;51.982;4.664;2023-04-25T00:20:11;77294.31;;;-143.36;nan
39209;BME280;24929;51.982;4.664;2023-04-25T00:22:36;77272.25;;;-143.36;nan
39209;BME280;24929;51.982;4.664;2023-04-25T00:25:06;77272.25;;;-143.36;nan
39209;BME280;24929;51.982;4.664;2023-04-25T00:27:32;77294.31;;;-143.36;nan
39209;BME280;24929;51.982;4.664;2023-04-25T00:29:57;77304.38;;;-143.36;nan
39209;BME280;24929;51.982;4.664;2023-04-25T00:32:23;77320.41;;;-143.36;nan
39209;BME280;24929;51.982;4.664;2023-04-25T00:34:48;77310.38;;;-143.36;nan
39209;BME280;24929;51.982;4.664;2023-04-25T00:37:14;77298.34;;;-143.36;nan
39209;BME280;24929;51.982;4.664;2023-04-25T00:39:39;77302.34;;;-143.36;nan
39209;BME280;24929;51.982;4.664;2023-04-25T00:42:05;77302.34;;;-143.36;nan
39209;BME280;24929;51.982;4.664;2023-04-25T00:44:31;77330.44;;;-143.36;nan
39209;BME280;24929;51.982;4.664;2023-04-25T00:46:57;77342.50;;;-143.36;nan
39209;BME280;24929;51.982;4.664;2023-04-25T00:49:23;77360.56;;;-143.36;nan
39209;BME280;24929;51.982;4.664;2023-04-25T00:51:48;77356.53;;;-143.36;nan
39209;BME280;24929;51.982;4.664;2023-04-25T00:54:14;77358.56;;;-143.36;nan
39209;BME280;24929;51.982;4.664;2023-04-25T00:56:41;77310.38;;;-143.36;nan
39209;BME280;24929;51.982;4.664;2023-04-25T00:59:06;77302.34;;;-143.36;nan
39209;BME280;24929;51.982;4.664;2023-04-25T01:01:32;77318.41;;;-143.36;nan
39209;BME280;24929;51.982;4.664;2023-04-25T01:03:58;77296.34;;;-143.36;nan
39209;BME280;24929;51.982;4.664;2023-04-25T01:06:24;77292.31;;;-143.36;nan
39209;BME280;24929;51.982;4.664;2023-04-25T01:08:50;77288.31;;;-143.36;nan
39209;BME280;24929;51.982;4.664;2023-04-25T01:11:16;77314.41;;;-143.36;nan
39209;BME280;24929;51.982;4.664;2023-04-25T01:13:42;77324.44;;;-143.36;nan
39209;BME280;24929;51.982;4.664;2023-04-25T01:16:07;77318.41;;;-143.36;nan
39209;BME280;24929;51.982;4.664;2023-04-25T01:18:33;77330.44;;;-143.36;nan
39209;BME280;24929;51.982;4.664;2023-04-25T01:21:09;77278.28;;;-143.36;nan
39209;BME280;24929;51.982;4.664;2023-04-25T01:23:35;77332.47;;;-143.36;nan
39209;BME280;24929;51.982;4.664;2023-04-25T01:26:01;77344.50;;;-143.36;nan
39209;BME280;24929;51.982;4.664;2023-04-25T01:28:28;77324.44;;;-143.36;nan
39209;BME280;24929;51.982;4.664;2023-04-25T01:30:54;77340.50;;;-143.36;nan
39209;BME280;24929;51.982;4.664;2023-04-25T01:33:21;77316.41;;;-143.36;nan
39209;BME280;24929;51.982;4.664;2023-04-25T01:35:46;77366.59;;;-143.36;nan
39209;BME280;24929;51.982;4.664;2023-04-25T01:38:13;77362.56;;;-143.36;nan
39209;BME280;24929;51.982;4.664;2023-04-25T01:40:39;77354.53;;;-143.36;nan
39209;BME280;24929;51.982;4.664;2023-04-25T01:43:05;77392.69;;;-143.36;nan
39209;BME280;24929;51.982;4.664;2023-04-25T01:45:31;77394.69;;;-143.36;nan
39209;BME280;24929;51.982;4.664;2023-04-25T01:47:56;77414.75;;;-143.36;nan
39209;BME280;24929;51.982;4.664;2023-04-25T01:50:24;77408.72;;;-143.36;nan
39209;BME280;24929;51.982;4.664;2023-04-25T01:52:50;77430.81;;;-143.36;nan
39209;BME280;24929;51.982;4.664;2023-04-25T01:55:16;77414.75;;;-143.36;nan
39209;BME280;24929;51.982;4.664;2023-04-25T01:57:41;77408.72;;;-143.36;nan
39209;BME280;24929;51.982;4.664;2023-04-25T02:00:08;77396.69;;;-143.36;nan
39209;BME280;24929;51.982;4.664;2023-04-25T02:02:34;77414.75;;;-143.36;nan
39209;BME280;24929;51.982;4.664;2023-04-25T02:05:00;77424.78;;;-143.36;nan
39209;BME280;24929;51.982;4.664;2023-04-25T02:07:26;77422.78;;;-143.36;nan
39209;BME280;24929;51.982;4.664;2023-04-25T02:09:51;77416.75;;;-143.36;nan
39209;BME280;24929;51.982;4.664;2023-04-25T02:12:17;77410.75;;;-143.36;nan
39209;BME280;24929;51.982;4.664;2023-04-25T02:14:42;77402.72;;;-143.36;nan
39209;BME280;24929;51.982;4.664;2023-04-25T02:17:07;77398.69;;;-143.36;nan
39209;BME280;24929;51.982;4.664;2023-04-25T02:19:33;77396.69;;;-143.36;nan
39209;BME280;24929;51.982;4.664;2023-04-25T02:21:58;77396.69;;;-143.36;nan
39209;BME280;24929;51.982;4.664;2023-04-25T02:24:24;77404.72;;;-143.36;nan
39209;BME280;24929;51.982;4.664;2023-04-25T02:26:50;77398.69;;;-143.36;nan
39209;BME280;24929;51.982;4.664;2023-04-25T02:29:15;77434.81;;;-143.36;nan
39209;BME280;24929;51.982;4.664;2023-04-25T02:31:41;77444.88;;;-143.36;nan
39209;BME280;24929;51.982;4.664;2023-04-25T02:34:06;77438.84;;;-143.36;nan
39209;BME280;24929;51.982;4.664;2023-04-25T02:36:32;77422.78;;;-143.36;nan
39209;BME280;24929;51.982;4.664;2023-04-25T02:39:00;77392.69;;;-143.36;nan
39209;BME280;24929;51.982;4.664;2023-04-25T02:41:26;77392.69;;;-143.36;nan
39209;BME280;24929;51.982;4.664;2023-04-25T02:43:51;77402.72;;;-143.36;nan
39209;BME280;24929;51.982;4.664;2023-04-25T02:46:16;77412.75;;;-143.36;nan
39209;BME280;24929;51.982;4.664;2023-04-25T02:48:42;77420.78;;;-143.36;nan
39209;BME280;24929;51.982;4.664;2023-04-25T02:51:07;77412.75;;;-143.36;nan
39209;BME280;24929;51.982;4.664;2023-04-25T02:53:32;77384.66;;;-143.36;nan
39209;BME280;24929;51.982;4.664;2023-04-25T02:55:58;77384.66;;;-143.36;nan
39209;BME280;24929;51.982;4.664;2023-04-25T02:58:24;77384.66;;;-143.36;nan
39209;BME280;24929;51.982;4.664;2023-04-25T03:00:49;77374.63;;;-143.36;nan
39209;BME280;24929;51.982;4.664;2023-04-25T03:03:15;77360.56;;;-143.36;nan
39209;BME280;24929;51.982;4.664;2023-04-25T03:05:43;77388.66;;;-143.36;nan
39209;BME280;24929;51.982;4.664;2023-04-25T03:08:08;77394.69;;;-143.36;nan
39209;BME280;24929;51.982;4.664;2023-04-25T03:10:34;77386.66;;;-143.36;nan
39209;BME280;24929;51.982;4.664;2023-04-25T03:12:59;77380.63;;;-143.36;nan
39209;BME280;24929;51.982;4.664;2023-04-25T03:15:25;77376.63;;;-143.36;nan
39209;BME280;24929;51.982;4.664;2023-04-25T03:17:50;77348.53;;;-143.36;nan
39209;BME280;24929;51.982;4.664;2023-04-25T03:20:15;77332.47;;;-143.36;nan
39209;BME280;24929;51.982;4.664;2023-04-25T03:22:41;77352.53;;;-143.36;nan
39209;BME280;24929;51.982;4.664;2023-04-25T03:25:07;77346.50;;;-143.36;nan
39209;BME280;24929;51.982;4.664;2023-04-25T03:27:32;77394.69;;;-143.36;nan
39209;BME280;24929;51.982;4.664;2023-04-25T03:29:58;77380.63;;;-143.36;nan
39209;BME280;24929;51.982;4.664;2023-04-25T03:32:24;77388.66;;;-143.36;nan
39209;BME280;24929;51.982;4.664;2023-04-25T03:34:50;77382.63;;;-143.36;nan
39209;BME280;24929;51.982;4.664;2023-04-25T03:37:15;77400.72;;;-143.36;nan
39209;BME280;24929;51.982;4.664;2023-04-25T03:39:40;77418.78;;;-143.36;nan
39209;BME280;24929;51.982;4.664;2023-04-25T03:42:06;77416.75;;;-143.36;nan
39209;BME280;24929;51.982;4.664;2023-04-25T03:44:31;77368.59;;;-143.36;nan
39209;BME280;24929;51.982;4.664;2023-04-25T03:46:56;77392.69;;;-143.36;nan
39209;BME280;24929;51.982;4.664;2023-04-25T03:49:22;77386.66;;;-143.36;nan
39209;BME280;24929;51.982;4.664;2023-04-25T03:51:47;77376.63;;;-143.36;nan
39209;BME280;24929;51.982;4.664;2023-04-25T03:54:12;77388.66;;;-143.36;nan
39209;BME280;24929;51.982;4.664;2023-04-25T03:56:38;77370.59;;;-143.36;nan
39209;BME280;24929;51.982;4.664;2023-04-25T03:59:03;77350.53;;;-143.36;nan
39209;BME280;24929;51.982;4.664;2023-04-25T04:01:28;77352.53;;;-143.36;nan
39209;BME280;24929;51.982;4.664;2023-04-25T04:03:54;77348.53;;;-143.36;nan
39209;BME280;24929;51.982;4.664;2023-04-25T04:06:19;77328.44;;;-143.36;nan
39209;BME280;24929;51.982;4.664;2023-04-25T04:08:46;77326.44;;;-143.36;nan
39209;BME280;24929;51.982;4.664;2023-04-25T04:11:11;77372.59;;;-143.36;nan
39209;BME280;24929;51.982;4.664;2023-04-25T04:13:37;77344.50;;;-143.36;nan
39209;BME280;24929;51.982;4.664;2023-04-25T04:16:02;77378.63;;;-143.36;nan
39209;BME280;24929;51.982;4.664;2023-04-25T04:18:29;77370.59;;;-143.36;nan
39209;BME280;24929;51.982;4.664;2023-04-25T04:20:54;77374.63;;;-143.36;nan
39209;BME280;24929;51.982;4.664;2023-04-25T04:23:20;77394.69;;;-143.36;nan
39209;BME280;24929;51.982;4.664;2023-04-25T04:25:46;77374.63;;;-143.36;nan
39209;BME280;24929;51.982;4.664;2023-04-25T04:28:12;77368.59;;;-143.36;nan
39209;BME280;24929;51.982;4.664;2023-04-25T04:30:38;77380.63;;;-143.36;nan
39209;BME280;24929;51.982;4.664;2023-04-25T04:33:04;77390.66;;;-143.36;nan
39209;BME280;24929;51.982;4.664;2023-04-25T04:35:29;77356.53;;;-143.36;nan
39209;BME280;24929;51.982;4.664;2023-04-25T04:37:55;77352.53;;;-143.36;nan
39209;BME280;24929;51.982;4.664;2023-04-25T04:40:21;77350.53;;;-143.36;nan
39209;BME280;24929;51.982;4.664;2023-04-25T04:42:47;77348.53;;;-143.36;nan
39209;BME280;24929;51.982;4.664;2023-04-25T04:45:13;77352.53;;;-143.36;nan
39209;BME280;24929;51.982;4.664;2023-04-25T04:47:39;77400.72;;;-143.36;nan
39209;BME280;24929;51.982;4.664;2023-04-25T04:50:07;77342.50;;;-143.36;nan
39209;BME280;24929;51.982;4.664;2023-04-25T04:52:34;77346.50;;;-143.36;nan
39209;BME280;24929;51.982;4.664;2023-04-25T04:55:00;77382.63;;;-143.36;nan
39209;BME280;24929;51.982;4.664;2023-04-25T04:57:25;77396.69;;;-143.36;nan
39209;BME280;24929;51.982;4.664;2023-04-25T04:59:51;77410.75;;;-143.36;nan
39209;BME280;24929;51.982;4.664;2023-04-25T05:02:16;77434.81;;;-143.36;nan
39209;BME280;24929;51.982;4.664;2023-04-25T05:04:41;77386.66;;;-143.36;nan
39209;BME280;24929;51.982;4.664;2023-04-25T05:07:07;77384.66;;;-143.36;nan
39209;BME280;24929;51.982;4.664;2023-04-25T05:09:32;77380.63;;;-143.36;nan
39209;BME280;24929;51.982;4.664;2023-04-25T05:11:58;77430.81;;;-143.36;nan
39209;BME280;24929;51.982;4.664;2023-04-25T05:14:23;77386.66;;;-143.36;nan
39209;BME280;24929;51.982;4.664;2023-04-25T05:16:48;77374.63;;;-143.36;nan
39209;BME280;24929;51.982;4.664;2023-04-25T05:19:14;77388.66;;;-143.36;nan
39209;BME280;24929;51.982;4.664;2023-04-25T05:21:39;77396.69;;;-143.36;nan
39209;BME280;24929;51.982;4.664;2023-04-25T05:24:05;77390.66;;;-143.36;nan
39209;BME280;24929;51.982;4.664;2023-04-25T05:26:30;77392.69;;;-143.36;nan
39209;BME280;24929;51.982;4.664;2023-04-25T05:28:58;77340.50;;;-143.36;nan
39209;BME280;24929;51.982;4.664;2023-04-25T05:31:25;77380.63;;;-143.36;nan
39209;BME280;24929;51.982;4.664;2023-04-25T05:33:50;77432.81;;;-143.36;nan
39209;BME280;24929;51.982;4.664;2023-04-25T05:36:17;77392.69;;;-143.36;nan
39209;BME280;24929;51.982;4.664;2023-04-25T05:38:43;77396.69;;;-143.36;nan
39209;BME280;24929;51.982;4.664;2023-04-25T05:41:08;77372.59;;;-143.36;nan
39209;BME280;24929;51.982;4.664;2023-04-25T05:43:33;77358.56;;;-143.36;nan
39209;BME280;24929;51.982;4.664;2023-04-25T05:45:59;77352.53;;;-143.36;nan
39209;BME280;24929;51.982;4.664;2023-04-25T05:48:24;77378.63;;;-143.36;nan
39209;BME280;24929;51.982;4.664;2023-04-25T05:50:50;77418.78;;;-143.36;nan
39209;BME280;24929;51.982;4.664;2023-04-25T05:53:17;77374.63;;;-143.36;nan
39209;BME280;24929;51.982;4.664;2023-04-25T05:55:42;77422.78;;;-143.36;nan
39209;BME280;24929;51.982;4.664;2023-04-25T05:58:08;77438.84;;;-143.36;nan
39209;BME280;24929;51.982;4.664;2023-04-25T06:00:33;77452.88;;;-143.36;nan
39209;BME280;24929;51.982;4.664;2023-04-25T06:03:01;77372.59;;;-143.36;nan
39209;BME280;24929;51.982;4.664;2023-04-25T06:05:27;77466.94;;;-143.36;nan
39209;BME280;24929;51.982;4.664;2023-04-25T06:07:52;77442.84;;;-143.36;nan
39209;BME280;24929;51.982;4.664;2023-04-25T06:10:18;77424.78;;;-143.36;nan
39209;BME280;24929;51.982;4.664;2023-04-25T06:12:44;77368.59;;;-143.36;nan
39209;BME280;24929;51.982;4.664;2023-04-25T06:15:09;77436.84;;;-143.36;nan
39209;BME280;24929;51.982;4.664;2023-04-25T06:17:35;77418.78;;;-143.36;nan
39209;BME280;24929;51.982;4.664;2023-04-25T06:20:01;77521.13;;;-143.36;nan
39209;BME280;24929;51.982;4.664;2023-04-25T06:22:27;77446.88;;;-143.36;nan
39209;BME280;24929;51.982;4.664;2023-04-25T06:24:52;77472.97;;;-143.36;nan
39209;BME280;24929;51.982;4.664;2023-04-25T06:27:17;77414.75;;;-143.36;nan
39209;BME280;24929;51.982;4.664;2023-04-25T06:29:43;77476.97;;;-143.36;nan
39209;BME280;24929;51.982;4.664;2023-04-25T06:32:08;77497.06;;;-143.36;nan
39209;BME280;24929;51.982;4.664;2023-04-25T06:34:33;77493.03;;;-143.36;nan
39209;BME280;24929;51.982;4.664;2023-04-25T06:36:59;77468.94;;;-143.36;nan
39209;BME280;24929;51.982;4.664;2023-04-25T06:39:24;77428.81;;;-143.36;nan
39209;BME280;24929;51.982;4.664;2023-04-25T06:41:50;77400.72;;;-143.36;nan
39209;BME280;24929;51.982;4.664;2023-04-25T06:44:17;77370.59;;;-143.36;nan
39209;BME280;24929;51.982;4.664;2023-04-25T06:46:42;77394.69;;;-143.36;nan
39209;BME280;24929;51.982;4.664;2023-04-25T06:49:07;77368.59;;;-143.36;nan
39209;BME280;24929;51.982;4.664;2023-04-25T06:51:33;77316.41;;;-143.36;nan
39209;BME280;24929;51.982;4.664;2023-04-25T06:53:58;77290.31;;;-143.36;nan
39209;BME280;24929;51.982;4.664;2023-04-25T06:56:24;77302.34;;;-143.36;nan
39209;BME280;24929;51.982;4.664;2023-04-25T06:58:49;77280.28;;;-143.36;nan
39209;BME280;24929;51.982;4.664;2023-04-25T07:01:15;77282.28;;;-143.36;nan
39209;BME280;24929;51.982;4.664;2023-04-25T07:03:40;77270.25;;;-143.36;nan
39209;BME280;24929;51.982;4.664;2023-04-25T07:06:06;77234.13;;;-143.36;nan
39209;BME280;24929;51.982;4.664;2023-04-25T07:08:31;77198.00;;;-143.36;nan
39209;BME280;24929;51.982;4.664;2023-04-25T07:10:57;77224.06;;;-143.36;nan
39209;BME280;24929;51.982;4.664;2023-04-25T07:13:22;77234.13;;;-143.36;nan
39209;BME280;24929;51.982;4.664;2023-04-25T07:15:47;77193.97;;;-143.36;nan
39209;BME280;24929;51.982;4.664;2023-04-25T07:18:13;77167.88;;;-143.36;nan
39209;BME280;24929;51.982;4.664;2023-04-25T07:20:39;77113.69;;;-143.36;nan
39209;BME280;24929;51.982;4.664;2023-04-25T07:23:04;77081.59;;;-143.36;nan
39209;BME280;24929;51.982;4.664;2023-04-25T07:25:30;77091.63;;;-143.36;nan
39209;BME280;24929;51.982;4.664;2023-04-25T07:27:56;77079.56;;;-143.36;nan
39209;BME280;24929;51.982;4.664;2023-04-25T07:30:21;77077.56;;;-143.36;nan
39209;BME280;24929;51.982;4.664;2023-04-25T07:32:47;77139.78;;;-143.36;nan
39209;BME280;24929;51.982;4.664;2023-04-25T07:35:13;77085.59;;;-143.36;nan
39209;BME280;24929;51.982;4.664;2023-04-25T07:37:38;77105.66;;;-143.36;nan
39209;BME280;24929;51.982;4.664;2023-04-25T07:40:04;77021.38;;;-143.36;nan
39209;BME280;24929;51.982;4.664;2023-04-25T07:42:30;77013.34;;;-143.36;nan
39209;BME280;24929;51.982;4.664;2023-04-25T07:44:56;77053.47;;;-143.36;nan
39209;BME280;24929;51.982;4.664;2023-04-25T07:47:21;77191.97;;;-143.36;nan
39209;BME280;24929;51.982;4.664;2023-04-25T07:49:46;77139.78;;;-143.36;nan
39209;BME280;24929;51.982;4.664;2023-04-25T07:52:12;77115.69;;;-143.36;nan
39209;BME280;24929;51.982;4.664;2023-04-25T07:54:37;76939.09;;;-143.36;nan
39209;BME280;24929;51.982;4.664;2023-04-25T07:57:02;76802.63;;;-143.36;nan
39209;BME280;24929;51.982;4.664;2023-04-25T07:59:28;76660.13;;;-143.36;nan
39209;BME280;24929;51.982;4.664;2023-04-25T08:01:53;76626.00;;;-143.36;nan
39209;BME280;24929;51.982;4.664;2023-04-25T08:04:19;76601.94;;;-143.36;nan
39209;BME280;24929;51.982;4.664;2023-04-25T08:06:44;76872.84;;;-143.36;nan
39209;BME280;24929;51.982;4.664;2023-04-25T08:09:10;76957.16;;;-143.36;nan
39209;BME280;24929;51.982;4.664;2023-04-25T08:11:36;77009.31;;;-143.36;nan
39209;BME280;24929;51.982;4.664;2023-04-25T08:14:02;77131.75;;;-143.36;nan
39209;BME280;24929;51.982;4.664;2023-04-25T08:16:28;77159.84;;;-143.36;nan
39209;BME280;24929;51.982;4.664;2023-04-25T08:18:53;77085.59;;;-143.36;nan
39209;BME280;24929;51.982;4.664;2023-04-25T08:21:19;76957.16;;;-143.36;nan
39209;BME280;24929;51.982;4.664;2023-04-25T08:23:44;76888.91;;;-143.36;nan
39209;BME280;24929;51.982;4.664;2023-04-25T08:26:10;76694.25;;;-143.36;nan
39209;BME280;24929;51.982;4.664;2023-04-25T08:28:35;76840.75;;;-143.36;nan
39209;BME280;24929;51.982;4.664;2023-04-25T08:31:00;76826.69;;;-143.36;nan
39209;BME280;24929;51.982;4.664;2023-04-25T08:33:26;76880.88;;;-143.36;nan
39209;BME280;24929;51.982;4.664;2023-04-25T08:35:51;77027.38;;;-143.36;nan
39209;BME280;24929;51.982;4.664;2023-04-25T08:38:17;77025.38;;;-143.36;nan
39209;BME280;24929;51.982;4.664;2023-04-25T08:40:44;77035.41;;;-143.36;nan
39209;BME280;24929;51.982;4.664;2023-04-25T08:43:10;77139.78;;;-143.36;nan
39209;BME280;24929;51.982;4.664;2023-04-25T08:45:42;77123.72;;;-143.36;nan
39209;BME280;24929;51.982;4.664;2023-04-25T08:48:10;77103.66;;;-143.36;nan
39209;BME280;24929;51.982;4.664;2023-04-25T08:50:42;77149.81;;;-143.36;nan
39209;BME280;24929;51.982;4.664;2023-04-25T08:53:12;77149.81;;;-143.36;nan
39209;BME280;24929;51.982;4.664;2023-04-25T08:55:41;77017.34;;;-143.36;nan
39209;BME280;24929;51.982;4.664;2023-04-25T08:58:07;76945.09;;;-143.36;nan
39209;BME280;24929;51.982;4.664;2023-04-25T09:00:34;76838.75;;;-143.36;nan
39209;BME280;24929;51.982;4.664;2023-04-25T09:02:59;76814.66;;;-143.36;nan
39209;BME280;24929;51.982;4.664;2023-04-25T09:05:25;76878.88;;;-143.36;nan
39209;BME280;24929;51.982;4.664;2023-04-25T09:07:50;76892.94;;;-143.36;nan
39209;BME280;24929;51.982;4.664;2023-04-25T09:10:16;76941.09;;;-143.36;nan
39209;BME280;24929;51.982;4.664;2023-04-25T09:12:41;76967.19;;;-143.36;nan
39209;BME280;24929;51.982;4.664;2023-04-25T09:15:11;76802.63;;;-143.36;nan
39209;BME280;24929;51.982;4.664;2023-04-25T09:17:36;76822.69;;;-143.36;nan
39209;BME280;24929;51.982;4.664;2023-04-25T09:20:10;76782.53;;;-143.36;nan
39209;BME280;24929;51.982;4.664;2023-04-25T09:22:36;76834.72;;;-143.36;nan
39209;BME280;24929;51.982;4.664;2023-04-25T09:25:12;76794.59;;;-143.36;nan
39209;BME280;24929;51.982;4.664;2023-04-25T09:27:50;76768.50;;;-143.36;nan
39209;BME280;24929;51.982;4.664;2023-04-25T09:30:17;76788.56;;;-143.36;nan
39209;BME280;24929;51.982;4.664;2023-04-25T09:32:43;76902.97;;;-143.36;nan
39209;BME280;24929;51.982;4.664;2023-04-25T09:35:09;77059.50;;;-143.36;nan
39209;BME280;24929;51.982;4.664;2023-04-25T09:37:36;76979.22;;;-143.36;nan
39209;BME280;24929;51.982;4.664;2023-04-25T09:40:05;76955.13;;;-143.36;nan
39209;BME280;24929;51.982;4.664;2023-04-25T09:42:31;76931.06;;;-143.36;nan
39209;BME280;24929;51.982;4.664;2023-04-25T09:44:59;77021.38;;;-143.36;nan
39209;BME280;24929;51.982;4.664;2023-04-25T09:47:27;77041.44;;;-143.36;nan
39209;BME280;24929;51.982;4.664;2023-04-25T09:49:54;77025.38;;;-143.36;nan
39209;BME280;24929;51.982;4.664;2023-04-25T09:52:21;77065.53;;;-143.36;nan
39209;BME280;24929;51.982;4.664;2023-04-25T09:54:48;77045.44;;;-143.36;nan
39209;BME280;24929;51.982;4.664;2023-04-25T09:57:21;77015.34;;;-143.36;nan
39209;BME280;24929;51.982;4.664;2023-04-25T09:59:51;77059.50;;;-143.36;nan
39209;BME280;24929;51.982;4.664;2023-04-25T10:02:19;76971.19;;;-143.36;nan
39209;BME280;24929;51.982;4.664;2023-04-25T10:04:48;76923.03;;;-143.36;nan
39209;BME280;24929;51.982;4.664;2023-04-25T10:07:15;76933.06;;;-143.36;nan
39209;BME280;24929;51.982;4.664;2023-04-25T10:09:42;76902.97;;;-143.36;nan
39209;BME280;24929;51.982;4.664;2023-04-25T10:12:08;76878.88;;;-143.36;nan
39209;BME280;24929;51.982;4.664;2023-04-25T10:14:34;76921.03;;;-143.36;nan
39209;BME280;24929;51.982;4.664;2023-04-25T10:17:00;76931.06;;;-143.36;nan
39209;BME280;24929;51.982;4.664;2023-04-25T10:19:27;76888.91;;;-143.36;nan
39209;BME280;24929;51.982;4.664;2023-04-25T10:21:58;76896.94;;;-143.36;nan
39209;BME280;24929;51.982;4.664;2023-04-25T10:24:27;76900.97;;;-143.36;nan
39209;BME280;24929;51.982;4.664;2023-04-25T10:26:53;76959.16;;;-143.36;nan
39209;BME280;24929;51.982;4.664;2023-04-25T10:29:24;77039.44;;;-143.36;nan
39209;BME280;24929;51.982;4.664;2023-04-25T10:31:49;77089.59;;;-143.36;nan
39209;BME280;24929;51.982;4.664;2023-04-25T10:34:16;76945.09;;;-143.36;nan
39209;BME280;24929;51.982;4.664;2023-04-25T10:36:42;76921.03;;;-143.36;nan
39209;BME280;24929;51.982;4.664;2023-04-25T10:39:08;77111.69;;;-143.36;nan
39209;BME280;24929;51.982;4.664;2023-04-25T10:41:47;77039.44;;;-143.36;nan
39209;BME280;24929;51.982;4.664;2023-04-25T10:44:13;77193.97;;;-143.36;nan
39209;BME280;24929;51.982;4.664;2023-04-25T10:46:39;77181.94;;;-143.36;nan
39209;BME280;24929;51.982;4.664;2023-04-25T10:49:04;77228.09;;;-143.36;nan
39209;BME280;24929;51.982;4.664;2023-04-25T10:51:34;77220.06;;;-143.36;nan
39209;BME280;24929;51.982;4.664;2023-04-25T10:56:30;77097.63;;;-143.36;nan
39209;BME280;24929;51.982;4.664;2023-04-25T10:59:17;77009.31;;;-143.36;nan
39209;BME280;24929;51.982;4.664;2023-04-25T11:01:45;77023.38;;;-143.36;nan
39209;BME280;24929;51.982;4.664;2023-04-25T11:09:37;76908.97;;;-143.36;nan
39209;BME280;24929;51.982;4.664;2023-04-25T11:12:03;76951.13;;;-143.36;nan
39209;BME280;24929;51.982;4.664;2023-04-25T11:14:30;76898.94;;;-143.36;nan
39209;BME280;24929;51.982;4.664;2023-04-25T11:16:59;76790.56;;;-143.36;nan
39209;BME280;24929;51.982;4.664;2023-04-25T11:19:26;76790.56;;;-143.36;nan
39209;BME280;24929;51.982;4.664;2023-04-25T11:21:55;76894.94;;;-143.36;nan
39209;BME280;24929;51.982;4.664;2023-04-25T11:24:32;76959.16;;;-143.36;nan
39209;BME280;24929;51.982;4.664;2023-04-25T11:26:58;76955.13;;;-143.36;nan
39209;BME280;24929;51.982;4.664;2023-04-25T11:29:27;76900.97;;;-143.36;nan
39209;BME280;24929;51.982;4.664;2023-04-25T11:31:54;76890.91;;;-143.36;nan
39209;BME280;24929;51.982;4.664;2023-04-25T11:34:28;76937.06;;;-143.36;nan
39209;BME280;24929;51.982;4.664;2023-04-25T11:36:56;77003.31;;;-143.36;nan
39209;BME280;24929;51.982;4.664;2023-04-25T11:39:23;76967.19;;;-143.36;nan
39209;BME280;24929;51.982;4.664;2023-04-25T11:41:52;77085.59;;;-143.36;nan
39209;BME280;24929;51.982;4.664;2023-04-25T11:44:18;77025.38;;;-143.36;nan
39209;BME280;24929;51.982;4.664;2023-04-25T11:46:45;76931.06;;;-143.36;nan
39209;BME280;24929;51.982;4.664;2023-04-25T11:49:11;76921.03;;;-143.36;nan
39209;BME280;24929;51.982;4.664;2023-04-25T11:51:45;76762.47;;;-143.36;nan
39209;BME280;24929;51.982;4.664;2023-04-25T11:54:11;76822.69;;;-143.36;nan
39209;BME280;24929;51.982;4.664;2023-04-25T11:56:37;76872.84;;;-143.36;nan
39209;BME280;24929;51.982;4.664;2023-04-25T11:59:04;76770.50;;;-143.36;nan
39209;BME280;24929;51.982;4.664;2023-04-25T12:01:41;76754.44;;;-143.36;nan
39209;BME280;24929;51.982;4.664;2023-04-25T12:06:41;76902.97;;;-143.36;nan
39209;BME280;24929;51.982;4.664;2023-04-25T12:09:09;76814.66;;;-143.36;nan
39209;BME280;24929;51.982;4.664;2023-04-25T12:11:46;76784.56;;;-143.36;nan
39209;BME280;24929;51.982;4.664;2023-04-25T12:14:21;76766.50;;;-143.36;nan
39209;BME280;24929;51.982;4.664;2023-04-25T12:16:48;76872.84;;;-143.36;nan
39209;BME280;24929;51.982;4.664;2023-04-25T12:19:14;76886.91;;;-143.36;nan
39209;BME280;24929;51.982;4.664;2023-04-25T12:21:40;76844.75;;;-143.36;nan
39209;BME280;24929;51.982;4.664;2023-04-25T12:24:14;76740.41;;;-143.36;nan
39209;BME280;24929;51.982;4.664;2023-04-25T12:29:22;76892.94;;;-143.36;nan
39209;BME280;24929;51.982;4.664;2023-04-25T12:31:49;76973.19;;;-143.36;nan
39209;BME280;24929;51.982;4.664;2023-04-25T12:34:16;77131.75;;;-143.36;nan
39209;BME280;24929;51.982;4.664;2023-04-25T12:36:41;76904.97;;;-143.36;nan
39209;BME280;24929;51.982;4.664;2023-04-25T12:39:07;76836.72;;;-143.36;nan
39209;BME280;24929;51.982;4.664;2023-04-25T12:41:33;76768.50;;;-143.36;nan
39209;BME280;24929;51.982;4.664;2023-04-25T12:43:58;76766.50;;;-143.36;nan
39209;BME280;24929;51.982;4.664;2023-04-25T12:46:26;76696.25;;;-143.36;nan
39209;BME280;24929;51.982;4.664;2023-04-25T12:48:52;76591.91;;;-143.36;nan
39209;BME280;24929;51.982;4.664;2023-04-25T12:51:18;76565.81;;;-143.36;nan
39209;BME280;24929;51.982;4.664;2023-04-25T12:53:43;76537.72;;;-143.36;nan
39209;BME280;24929;51.982;4.664;2023-04-25T12:56:08;76780.53;;;-143.36;nan
39209;BME280;24929;51.982;4.664;2023-04-25T12:58:34;76746.44;;;-143.36;nan
39209;BME280;24929;51.982;4.664;2023-04-25T13:00:59;76696.25;;;-143.36;nan
39209;BME280;24929;51.982;4.664;2023-04-25T13:03:25;76664.16;;;-143.36;nan
39209;BME280;24929;51.982;4.664;2023-04-25T13:05:51;76935.06;;;-143.36;nan
39209;BME280;24929;51.982;4.664;2023-04-25T13:08:20;77067.53;;;-143.36;nan